createdAt,value
2018-07-28T00:02:20.649Z,67.60
2018-07-28T00:04:49.112Z,67.10
2018-07-28T00:07:17.992Z,66.40
2018-07-28T00:09:46.445Z,66.40
2018-07-28T00:12:14.934Z,66.70
2018-07-28T00:14:43.466Z,66.80
2018-07-28T00:17:11.993Z,67.10
2018-07-28T00:19:40.488Z,68.40
2018-07-28T00:22:09.126Z,69.60
2018-07-28T00:24:37.612Z,69.10
2018-07-28T00:27:06.207Z,69.60
2018-07-28T00:29:34.675Z,68.90
2018-07-28T00:32:03.204Z,69.20
2018-07-28T00:34:32.272Z,68.10
2018-07-28T00:37:00.729Z,67.90
2018-07-28T00:39:29.179Z,67.90
2018-07-28T00:41:57.694Z,68.00
2018-07-28T00:44:26.172Z,67.50
2018-07-28T00:46:54.699Z,68.20
2018-07-28T00:49:23.133Z,69.20
2018-07-28T00:51:52.441Z,70.20
2018-07-28T00:54:20.948Z,70.70
2018-07-28T00:56:49.411Z,69.70
2018-07-28T00:59:17.893Z,69.40
2018-07-28T01:01:46.385Z,69.20
2018-07-28T01:04:14.884Z,68.00
2018-07-28T01:06:43.456Z,68.50
2018-07-28T01:09:11.928Z,68.40
2018-07-28T01:11:40.424Z,69.70
2018-07-28T01:14:09.542Z,69.80
2018-07-28T01:16:38.120Z,68.20
2018-07-28T01:19:06.584Z,67.70
2018-07-28T01:21:35.112Z,68.90
2018-07-28T01:24:03.599Z,69.90
2018-07-28T01:26:32.055Z,69.90
2018-07-28T01:29:05.964Z,70.10
2018-07-28T01:31:35.545Z,68.40
2018-07-28T01:34:04.057Z,69.00
2018-07-28T01:36:32.607Z,68.50
2018-07-28T01:39:01.072Z,70.30
2018-07-28T01:41:29.620Z,70.60
2018-07-28T01:43:58.116Z,71.60
2018-07-28T01:46:26.529Z,72.50
2018-07-28T01:48:54.972Z,72.00
2018-07-28T01:51:23.429Z,71.20
2018-07-28T01:53:51.893Z,70.80
2018-07-28T01:56:20.373Z,70.80
2018-07-28T01:58:48.851Z,70.80
2018-07-28T02:01:17.364Z,71.40
2018-07-28T02:03:45.840Z,71.30
2018-07-28T02:06:14.313Z,71.10
2018-07-28T02:08:42.842Z,70.60
2018-07-28T02:11:11.382Z,70.40
2018-07-28T02:13:40.204Z,70.80
2018-07-28T02:16:08.657Z,70.80
2018-07-28T02:18:37.716Z,71.90
2018-07-28T02:21:06.215Z,73.30
2018-07-28T02:23:34.662Z,72.40
2018-07-28T02:26:03.153Z,70.90
2018-07-28T02:28:31.580Z,70.10
2018-07-28T02:31:00.163Z,71.40
2018-07-28T02:33:28.614Z,72.20
2018-07-28T02:35:57.068Z,72.30
2018-07-28T02:38:26.516Z,74.20
2018-07-28T02:40:54.989Z,73.00
2018-07-28T02:43:23.606Z,72.30
2018-07-28T02:45:53.106Z,73.50
2018-07-28T02:48:21.545Z,73.60
2018-07-28T02:50:50.010Z,73.80
2018-07-28T02:53:18.437Z,73.60
2018-07-28T02:55:46.907Z,74.20
2018-07-28T02:58:16.602Z,74.30
2018-07-28T03:00:45.706Z,74.90
2018-07-28T03:03:14.524Z,75.00
2018-07-28T03:05:42.975Z,74.40
2018-07-28T03:08:11.468Z,73.20
2018-07-28T03:10:40.113Z,72.70
2018-07-28T03:13:08.697Z,72.50
2018-07-28T03:15:37.467Z,72.20
2018-07-28T03:18:07.649Z,73.60
2018-07-28T03:20:36.249Z,74.80
2018-07-28T03:23:05.479Z,75.20
2018-07-28T03:25:33.920Z,75.10
2018-07-28T03:28:02.394Z,75.10
2018-07-28T03:30:32.293Z,75.50
2018-07-28T03:33:01.324Z,75.60
2018-07-28T03:35:29.829Z,75.40
2018-07-28T03:37:58.323Z,74.90
2018-07-28T03:40:26.844Z,75.10
2018-07-28T03:42:55.351Z,74.90
2018-07-28T03:45:23.927Z,75.60
2018-07-28T03:47:52.377Z,76.50
2018-07-28T03:50:20.854Z,76.60
2018-07-28T03:52:49.324Z,76.10
2018-07-28T03:55:17.843Z,75.50
2018-07-28T03:57:46.287Z,75.10
2018-07-28T04:00:14.758Z,75.50
2018-07-28T04:02:43.543Z,76.30
2018-07-28T04:05:12.493Z,76.30
2018-07-28T04:07:41.160Z,76.60
2018-07-28T04:10:10.101Z,76.30
2018-07-28T04:15:09.861Z,75.90
2018-07-28T04:17:50.841Z,74.80
2018-07-28T04:20:19.776Z,75.30
2018-07-28T04:22:48.249Z,75.70
2018-07-28T04:25:16.761Z,75.00
2018-07-28T04:27:45.254Z,74.60
2018-07-28T04:30:13.740Z,74.70
2018-07-28T04:32:42.246Z,75.20
2018-07-28T04:35:11.271Z,75.90
2018-07-28T04:37:40.180Z,76.50
2018-07-28T04:40:10.692Z,76.10
2018-07-28T04:42:39.524Z,75.60
2018-07-28T04:47:37.349Z,73.90
2018-07-28T04:50:05.948Z,73.40
2018-07-28T04:52:34.469Z,73.10
2018-07-28T04:55:03.054Z,72.20
2018-07-28T04:59:59.716Z,72.20
2018-07-28T05:02:29.009Z,70.40
2018-07-28T05:04:57.876Z,71.40
2018-07-28T05:07:26.757Z,73.80
2018-07-28T05:09:55.572Z,72.80
2018-07-28T05:12:24.674Z,70.90
2018-07-28T05:14:53.232Z,67.50
2018-07-28T05:17:22.029Z,66.70
2018-07-28T05:19:50.529Z,67.90
2018-07-28T05:22:18.952Z,66.00
2018-07-28T05:24:47.456Z,65.30
2018-07-28T05:27:15.982Z,65.50
2018-07-28T05:29:45.147Z,66.70
2018-07-28T05:32:13.601Z,67.10
2018-07-28T05:34:42.072Z,67.50
2018-07-28T05:37:10.567Z,67.30
2018-07-28T05:39:39.012Z,66.90
2018-07-28T05:42:07.469Z,66.40
2018-07-28T05:44:36.106Z,66.20
2018-07-28T05:47:04.670Z,66.00
2018-07-28T05:49:33.232Z,65.90
2018-07-28T05:52:01.906Z,64.90
2018-07-28T05:54:30.384Z,66.10
2018-07-28T05:56:58.892Z,66.10
2018-07-28T05:59:27.358Z,64.50
2018-07-28T06:01:55.965Z,64.70
2018-07-28T06:04:24.717Z,63.80
2018-07-28T06:06:53.274Z,63.00
2018-07-28T06:09:21.784Z,63.10
2018-07-28T06:11:50.300Z,61.90
2018-07-28T06:16:46.936Z,61.10
2018-07-28T06:19:15.388Z,61.00
2018-07-28T06:21:43.981Z,60.10
2018-07-28T06:24:12.475Z,60.30
2018-07-28T06:26:41.077Z,56.60
2018-07-28T06:29:10.061Z,59.80
2018-07-28T06:31:38.591Z,60.10
2018-07-28T06:34:07.074Z,59.40
2018-07-28T06:36:35.664Z,58.90
2018-07-28T06:39:06.741Z,60.00
2018-07-28T06:41:35.209Z,55.30
2018-07-28T06:44:03.656Z,55.70
2018-07-28T06:46:32.242Z,56.60
2018-07-28T06:49:00.725Z,54.90
2018-07-28T06:51:29.220Z,54.60
2018-07-28T06:53:57.685Z,53.60
2018-07-28T06:56:26.152Z,53.00
2018-07-28T06:58:54.611Z,47.50
2018-07-28T07:01:23.201Z,51.30
2018-07-28T07:03:51.834Z,50.10
2018-07-28T07:06:20.565Z,48.30
2018-07-28T07:08:49.204Z,47.90
2018-07-28T07:11:17.676Z,49.00
2018-07-28T07:13:46.173Z,47.50
2018-07-28T07:29:19.125Z,48.20
2018-07-28T07:31:47.727Z,48.60
2018-07-28T07:34:16.268Z,49.90
2018-07-28T07:36:44.755Z,50.30
2018-07-28T07:39:13.366Z,50.00
2018-07-28T07:41:42.006Z,50.60
2018-07-28T07:44:10.452Z,50.00
2018-07-28T07:46:39.488Z,50.40
2018-07-28T07:49:08.129Z,50.40
2018-07-28T07:51:36.688Z,50.10
2018-07-28T07:54:05.395Z,50.10
2018-07-28T07:56:33.881Z,50.00
2018-07-28T07:59:03.074Z,50.90
2018-07-28T08:01:31.860Z,49.40
2018-07-28T08:04:00.731Z,51.00
2018-07-28T08:06:29.332Z,50.50
2018-07-28T08:08:57.833Z,50.30
2018-07-28T08:11:26.332Z,48.90
2018-07-28T08:13:55.563Z,48.40
2018-07-28T08:16:24.081Z,49.10
2018-07-28T08:18:53.482Z,49.70
2018-07-28T08:21:21.963Z,49.50
2018-07-28T08:23:50.561Z,49.40
2018-07-28T08:26:19.195Z,48.40
2018-07-28T08:28:48.150Z,51.00
2018-07-28T08:31:16.674Z,49.90
2018-07-28T08:33:45.204Z,51.10
2018-07-28T08:36:13.673Z,49.60
2018-07-28T08:38:42.208Z,50.20
2018-07-28T08:41:10.704Z,48.80
2018-07-28T08:43:39.197Z,47.00
2018-07-28T08:46:08.064Z,45.90
2018-07-28T08:48:36.596Z,45.10
2018-07-28T08:51:05.236Z,46.40
2018-07-28T08:53:34.057Z,46.40
2018-07-28T08:56:02.484Z,46.50
2018-07-28T08:58:30.970Z,46.00
2018-07-28T09:00:59.508Z,46.90
2018-07-28T09:03:28.102Z,47.30
2018-07-28T09:05:56.602Z,47.50
2018-07-28T09:08:25.033Z,46.70
2018-07-28T09:10:53.494Z,46.70
2018-07-28T09:13:22.017Z,46.40
2018-07-28T09:15:50.506Z,46.80
2018-07-28T09:20:47.268Z,46.80
2018-07-28T09:23:15.820Z,47.00
2018-07-28T09:25:44.241Z,47.30
2018-07-28T09:28:12.766Z,47.50
2018-07-28T09:30:41.225Z,47.90
2018-07-28T09:33:09.752Z,47.60
2018-07-28T09:35:38.213Z,48.30
2018-07-28T09:38:06.993Z,47.60
2018-07-28T09:40:35.556Z,47.40
2018-07-28T09:43:04.245Z,47.00
2018-07-28T09:45:32.780Z,46.90
2018-07-28T09:48:01.246Z,46.50
2018-07-28T09:50:29.764Z,47.00
2018-07-28T09:52:58.465Z,47.00
2018-07-28T09:55:26.941Z,46.50
2018-07-28T09:57:55.432Z,46.60
2018-07-28T10:00:29.333Z,46.20
2018-07-28T10:02:57.810Z,48.30
2018-07-28T10:05:26.841Z,46.90
2018-07-28T10:07:55.555Z,48.80
2018-07-28T10:10:24.736Z,48.10
2018-07-28T10:12:53.234Z,47.40
2018-07-28T10:15:21.680Z,47.30
2018-07-28T10:17:50.172Z,47.00
2018-07-28T10:20:18.688Z,47.70
2018-07-28T10:22:47.181Z,47.70
2018-07-28T10:25:15.623Z,48.30
2018-07-28T10:27:44.269Z,48.50
2018-07-28T10:30:12.774Z,48.60
2018-07-28T10:32:41.215Z,48.10
2018-07-28T10:35:11.815Z,49.00
2018-07-28T10:37:40.313Z,49.00
2018-07-28T10:40:09.937Z,49.10
2018-07-28T10:42:38.700Z,48.80
2018-07-28T10:45:07.593Z,47.90
2018-07-28T10:47:36.733Z,49.20
2018-07-28T10:50:05.749Z,49.00
2018-07-28T10:52:34.252Z,47.80
2018-07-28T10:55:02.942Z,49.10
2018-07-28T10:57:31.599Z,49.00
2018-07-28T11:00:00.100Z,47.70
2018-07-28T11:02:28.576Z,47.90
2018-07-28T11:04:57.107Z,47.10
2018-07-28T11:09:53.845Z,47.20
2018-07-28T11:12:22.336Z,46.40
2018-07-28T11:14:50.780Z,45.20
2018-07-28T11:17:19.192Z,44.10
2018-07-28T11:19:47.708Z,42.60
2018-07-28T11:22:16.148Z,43.30
2018-07-28T11:24:44.641Z,42.60
2018-07-28T11:27:13.300Z,43.40
2018-07-28T11:29:41.788Z,43.60
2018-07-28T11:32:21.345Z,43.70
2018-07-28T11:35:01.025Z,43.70
2018-07-28T11:37:53.970Z,44.40
2018-07-28T11:40:33.564Z,44.30
2018-07-28T11:43:13.249Z,44.20
2018-07-28T11:45:41.737Z,45.00
2018-07-28T11:50:38.427Z,45.00
2018-07-28T11:53:06.924Z,44.90
2018-07-28T11:55:35.903Z,44.10
2018-07-28T11:58:04.710Z,43.70
2018-07-28T12:00:33.267Z,43.50
2018-07-28T12:03:01.773Z,43.10
2018-07-28T12:05:30.287Z,44.10
2018-07-28T12:07:58.844Z,44.50
2018-07-28T12:10:27.325Z,44.40
2018-07-28T12:12:56.001Z,45.00
2018-07-28T12:15:24.566Z,45.30
2018-07-28T12:17:53.043Z,46.80
2018-07-28T12:20:21.536Z,45.10
2018-07-28T12:22:50.039Z,45.80
2018-07-28T12:25:18.501Z,46.30
2018-07-28T12:27:46.988Z,45.00
2018-07-28T12:30:15.484Z,44.80
2018-07-28T12:32:43.944Z,44.20
2018-07-28T12:35:12.434Z,44.60
2018-07-28T12:37:40.955Z,43.60
2018-07-28T12:40:09.484Z,43.40
2018-07-28T12:42:38.031Z,44.20
2018-07-28T12:45:07.234Z,44.00
2018-07-28T12:47:35.804Z,43.10
2018-07-28T12:50:04.688Z,43.50
2018-07-28T12:52:33.184Z,44.60
2018-07-28T12:55:01.782Z,44.50
2018-07-28T13:02:27.848Z,45.20
2018-07-28T13:04:56.449Z,43.40
2018-07-28T13:07:25.608Z,43.20
2018-07-28T13:09:54.109Z,42.70
2018-07-28T13:12:22.717Z,42.40
2018-07-28T13:14:51.247Z,42.40
2018-07-28T13:17:20.455Z,42.60
2018-07-28T13:19:48.990Z,43.00
2018-07-28T13:22:18.432Z,43.40
2018-07-28T13:24:46.997Z,42.90
2018-07-28T13:27:15.607Z,42.60
2018-07-28T13:29:44.240Z,41.70
2018-07-28T13:32:13.243Z,41.20
2018-07-28T13:34:43.203Z,40.10
2018-07-28T13:37:11.655Z,39.70
2018-07-28T13:39:41.093Z,39.60
2018-07-28T13:42:09.603Z,41.20
2018-07-28T13:44:38.081Z,41.30
2018-07-28T13:49:34.744Z,41.00
2018-07-28T13:52:03.573Z,41.10
2018-07-28T13:54:32.767Z,41.80
2018-07-28T13:57:01.304Z,41.80
2018-07-28T13:59:29.809Z,42.00
2018-07-28T14:01:58.256Z,41.90
2018-07-28T14:04:26.745Z,42.20
2018-07-28T14:09:23.563Z,42.90
2018-07-28T14:11:52.064Z,43.80
2018-07-28T14:14:20.513Z,46.80
2018-07-28T14:16:49.103Z,51.00
2018-07-28T14:19:17.792Z,52.50
2018-07-28T14:21:46.432Z,54.10
2018-07-28T14:24:14.970Z,52.70
2018-07-28T14:26:43.529Z,55.90
2018-07-28T14:29:12.141Z,53.70
2018-07-28T14:31:40.693Z,56.90
2018-07-28T14:34:09.254Z,56.90
2018-07-28T14:36:37.753Z,58.20
2018-07-28T14:39:08.548Z,59.90
2018-07-28T14:41:37.123Z,59.40
2018-07-28T14:44:05.654Z,59.60
2018-07-28T14:46:34.215Z,57.90
2018-07-28T14:49:03.276Z,59.30
2018-07-28T14:51:31.844Z,59.20
2018-07-28T14:54:00.361Z,56.60
2018-07-28T14:56:29.469Z,56.80
2018-07-28T14:58:58.016Z,57.00
2018-07-28T15:01:26.539Z,57.00
2018-07-28T15:03:56.054Z,55.40
2018-07-28T15:06:24.488Z,56.30
2018-07-28T15:08:53.010Z,57.30
2018-07-28T15:11:21.468Z,56.20
2018-07-28T15:13:49.999Z,56.00
2018-07-28T15:16:18.417Z,59.70
2018-07-28T15:18:47.004Z,57.50
2018-07-28T15:21:15.433Z,55.70
2018-07-28T15:23:43.986Z,58.20
2018-07-28T15:26:12.969Z,60.00
2018-07-28T15:28:41.677Z,60.10
2018-07-28T15:31:10.138Z,60.50
2018-07-28T15:33:38.768Z,60.70
2018-07-28T15:36:08.236Z,61.40
2018-07-28T15:38:36.709Z,61.80
2018-07-28T15:41:05.262Z,61.60
2018-07-28T15:43:33.753Z,62.60
2018-07-28T15:46:03.075Z,62.20
2018-07-28T15:48:31.591Z,62.90
2018-07-28T15:51:00.133Z,62.90
2018-07-28T15:53:28.580Z,63.70
2018-07-28T15:55:57.201Z,62.70
2018-07-28T15:58:25.684Z,61.90
2018-07-28T16:00:54.284Z,62.80
2018-07-28T16:03:22.724Z,61.70
2018-07-28T16:05:51.217Z,61.50
2018-07-28T16:08:19.804Z,61.50
2018-07-28T16:10:48.537Z,61.70
2018-07-28T16:13:17.008Z,61.00
2018-07-28T16:15:45.485Z,61.00
2018-07-28T16:18:13.974Z,60.40
2018-07-28T16:20:42.508Z,60.80
2018-07-28T16:23:11.020Z,60.20
2018-07-28T16:25:39.546Z,60.30
2018-07-28T16:28:08.034Z,60.40
2018-07-28T16:30:36.567Z,61.00
2018-07-28T16:33:05.081Z,61.10
2018-07-28T16:35:33.504Z,61.30
2018-07-28T16:38:02.121Z,61.20
2018-07-28T16:40:30.691Z,61.80
2018-07-28T16:42:59.349Z,60.90
2018-07-28T16:45:27.856Z,60.30
2018-07-28T16:47:56.329Z,60.00
2018-07-28T16:50:25.550Z,56.40
2018-07-28T16:52:54.348Z,55.90
2018-07-28T16:55:22.842Z,56.50
2018-07-28T16:57:51.293Z,54.10
2018-07-28T17:00:19.768Z,51.90
2018-07-28T17:02:48.393Z,51.60
2018-07-28T17:05:16.884Z,50.10
2018-07-28T17:07:45.429Z,49.70
2018-07-28T17:10:13.916Z,49.40
2018-07-28T17:12:42.370Z,50.10
2018-07-28T17:15:11.342Z,49.70
2018-07-28T17:17:39.821Z,48.50
2018-07-28T17:20:08.993Z,50.00
2018-07-28T17:22:37.542Z,51.00
2018-07-28T17:25:05.983Z,51.40
2018-07-28T17:27:34.739Z,51.70
2018-07-28T17:30:03.237Z,50.90
2018-07-28T17:34:59.868Z,53.10
2018-07-28T17:37:28.518Z,54.00
2018-07-28T17:39:57.340Z,53.30
2018-07-28T17:42:25.914Z,53.50
2018-07-28T17:44:54.472Z,52.70
2018-07-28T17:47:23.034Z,53.00
2018-07-28T17:49:51.672Z,53.10
2018-07-28T17:52:20.285Z,53.30
2018-07-28T17:57:17.070Z,53.90
2018-07-28T17:59:45.691Z,53.70
2018-07-28T18:02:14.753Z,53.40
2018-07-28T18:04:43.985Z,53.60
2018-07-28T18:07:12.468Z,54.70
2018-07-28T18:09:41.044Z,54.50
2018-07-28T18:12:09.743Z,55.50
2018-07-28T18:14:38.336Z,55.00
2018-07-28T18:17:07.229Z,55.00
2018-07-28T18:19:35.747Z,54.50
2018-07-28T18:22:05.056Z,55.00
2018-07-28T18:24:34.167Z,53.90
2018-07-28T18:27:02.702Z,52.80
2018-07-28T18:29:31.175Z,52.30
2018-07-28T18:32:00.361Z,53.00
2018-07-28T18:34:28.907Z,50.70
2018-07-28T18:36:57.678Z,51.00
2018-07-28T18:39:26.236Z,49.90
2018-07-28T18:41:54.661Z,49.40
2018-07-28T18:44:23.166Z,50.70
2018-07-28T18:46:51.661Z,52.20
2018-07-28T18:49:20.164Z,53.50
2018-07-28T18:51:48.633Z,55.00
2018-07-28T18:54:17.105Z,55.40
2018-07-28T18:56:45.710Z,55.60
2018-07-28T18:59:14.172Z,56.30
2018-07-28T19:01:42.755Z,55.10
2018-07-28T19:04:11.283Z,54.40
2018-07-28T19:06:39.736Z,54.50
2018-07-28T19:09:13.952Z,54.30
2018-07-28T19:11:42.945Z,54.20
2018-07-28T19:14:16.914Z,53.90
2018-07-28T19:16:45.953Z,53.30
2018-07-28T19:19:16.176Z,55.60
2018-07-28T19:21:45.403Z,55.50
2018-07-28T19:24:13.993Z,55.60
2018-07-28T19:26:42.495Z,54.60
2018-07-28T19:29:16.220Z,56.50
2018-07-28T19:31:45.184Z,56.10
2018-07-28T19:34:13.653Z,56.50
2018-07-28T19:36:47.372Z,57.40
2018-07-28T19:39:15.855Z,59.60
2018-07-28T19:41:49.616Z,60.60
2018-07-28T19:44:18.144Z,60.80
2018-07-28T19:49:14.826Z,61.10
2018-07-28T19:51:43.386Z,61.50
2018-07-28T19:54:12.523Z,61.40
2018-07-28T19:56:40.957Z,61.10
2018-07-28T19:59:09.459Z,60.70
2018-07-28T20:01:37.981Z,60.30
2018-07-28T20:04:06.694Z,60.60
2018-07-28T20:06:35.178Z,60.60
2018-07-28T20:09:04.530Z,61.00
2018-07-28T20:11:33.008Z,61.70
2018-07-28T20:14:01.565Z,62.60
2018-07-28T20:16:29.969Z,62.60
2018-07-28T20:18:58.433Z,63.20
2018-07-28T20:21:26.976Z,63.50
2018-07-28T20:26:23.957Z,62.90
2018-07-28T20:28:52.578Z,62.70
2018-07-28T20:31:21.060Z,62.80
2018-07-28T20:33:49.541Z,62.60
2018-07-28T20:36:18.049Z,61.90
2018-07-28T20:38:46.692Z,61.80
2018-07-28T20:41:15.180Z,61.40
2018-07-28T20:43:44.040Z,62.00
2018-07-28T20:46:12.462Z,62.50
2018-07-28T20:48:41.003Z,62.90
2018-07-28T20:51:09.557Z,62.60
2018-07-28T20:53:38.035Z,62.70
2018-07-28T20:56:08.484Z,62.90
2018-07-28T20:58:38.520Z,63.30
2018-07-28T21:01:08.125Z,63.10
2018-07-28T21:03:36.788Z,62.40
2018-07-28T21:06:05.728Z,62.50
2018-07-28T21:08:34.807Z,62.40
2018-07-28T21:11:04.182Z,62.40
2018-07-28T21:13:32.662Z,62.30
2018-07-28T21:16:01.101Z,61.60
2018-07-28T21:18:29.615Z,62.00
2018-07-28T21:20:58.076Z,62.50
2018-07-28T21:23:26.536Z,63.60
2018-07-28T21:25:54.998Z,63.70
2018-07-28T21:28:23.459Z,63.80
2018-07-28T21:30:51.929Z,64.70
2018-07-28T21:33:20.435Z,64.60
2018-07-28T21:35:49.030Z,64.80
2018-07-28T21:38:17.515Z,64.10
2018-07-28T21:40:46.010Z,63.50
2018-07-28T21:43:14.504Z,63.80
2018-07-28T21:45:43.191Z,63.90
2018-07-28T21:48:11.612Z,64.20
2018-07-28T21:50:40.067Z,63.70
2018-07-28T21:53:08.500Z,63.30
2018-07-28T21:55:37.207Z,62.90
2018-07-28T21:58:05.681Z,62.60
2018-07-28T22:00:39.624Z,63.10
2018-07-28T22:03:08.554Z,62.90
2018-07-28T22:05:37.081Z,63.20
2018-07-28T22:08:06.020Z,63.20
2018-07-28T22:10:34.524Z,63.20
2018-07-28T22:13:03.045Z,63.90
2018-07-28T22:15:31.481Z,64.20
2018-07-28T22:18:00.558Z,64.60
2018-07-28T22:20:29.857Z,64.60
2018-07-28T22:22:58.316Z,64.50
2018-07-28T22:25:26.742Z,64.30
2018-07-28T22:27:55.280Z,64.00
2018-07-28T22:30:23.923Z,64.00
2018-07-28T22:32:52.415Z,64.00
2018-07-28T22:35:21.458Z,64.00
2018-07-28T22:37:50.054Z,64.40
2018-07-28T22:40:18.521Z,65.20
2018-07-28T22:42:49.671Z,66.40
2018-07-28T22:45:19.376Z,65.90
2018-07-28T22:47:48.282Z,65.50
2018-07-28T22:50:17.373Z,65.20
2018-07-28T22:52:45.935Z,65.00
2018-07-28T22:55:15.344Z,65.50
2018-07-28T22:57:43.781Z,66.20
2018-07-28T23:00:13.235Z,66.10
2018-07-28T23:02:41.693Z,65.70
2018-07-28T23:05:10.188Z,65.90
2018-07-28T23:07:38.661Z,66.30
2018-07-28T23:10:07.156Z,66.50
2018-07-28T23:12:35.624Z,66.40
2018-07-28T23:15:04.206Z,66.40
2018-07-28T23:17:32.669Z,66.10
2018-07-28T23:20:01.137Z,66.20
2018-07-28T23:22:29.673Z,66.10
2018-07-28T23:24:58.114Z,66.60
2018-07-28T23:27:26.574Z,66.70
2018-07-28T23:29:55.065Z,67.50
2018-07-28T23:32:23.604Z,69.30
2018-07-28T23:34:52.051Z,69.40
2018-07-28T23:37:21.292Z,69.60
2018-07-28T23:39:49.756Z,71.00
2018-07-28T23:42:18.208Z,72.10
2018-07-28T23:44:46.653Z,72.70
2018-07-28T23:47:15.145Z,72.50
2018-07-28T23:49:43.676Z,72.70
2018-07-28T23:52:12.176Z,73.80
2018-07-28T23:54:40.672Z,74.30
2018-07-28T23:57:09.285Z,74.00
2018-07-28T23:59:38.045Z,74.00
